Latest Coastal Weather Observations for Maria Island

IDT60701

Issued at 11:32 am EST Sunday 30 August 2015 (issued every 10 minutes, with the page automatically refreshed every 10 minutes)

About coastal observations | Map of coastal stations | Coastal observations for TAS | Marine services | Other Formats
Station Details ID: 092124 Name: MARIA ISLAND (POINT LESUEUR) Lat: -42.66 Lon: 148.02 Height: 28.0 m
Data from the previous 72 hours. | See also: Recent months at Maria Island
Date/Time
EST
Temp

°C
Wind Pressure Rain
since 9am
mm
Weather Cloud Vis
km
Sea
Height
m
Swell
Dir
 
Speed
knots
Gust
knots
hPa Trend Height
m
Period
s
Dir
30/11:30am 9.4 SSW 20 22 1024.1 - 0.0 - - - - - - -
30/11:00am 8.3 SSW 20 24 1024.2 - 0.0 - - - - - - -
30/10:30am 8.0 SSW 23 28 1024.4 - 0.0 - - - - - - -
30/10:00am 8.2 SSW 22 25 1024.4 - 0.0 - - - - - - -
30/09:30am 8.0 SSW 23 27 1024.7 - 0.0 - - - - - - -
30/09:00am 7.7 SSW 23 27 1024.5 - 0.2 - - - - - - -
30/08:30am 7.6 SSW 23 28 1024.5 - 0.2 - - - - - - -
30/08:00am 7.9 SSW 21 26 1024.2 - 0.2 - - - - - - -
30/07:30am 7.8 SSW 22 27 1024.0 - 0.2 - - - - - - -
30/07:00am 7.4 SSW 22 29 1023.8 - 0.2 - - - - - - -
30/06:30am 7.4 SSW 23 29 1023.4 - 0.2 - - - - - - -
30/06:00am 7.4 SSW 24 28 1023.2 - 0.2 - - - - - - -
30/05:30am 7.7 SSW 25 31 1022.9 - 0.2 - - - - - - -
30/05:00am 7.2 SSW 24 27 1022.9 - 0.2 - - - - - - -
30/04:30am 7.5 SSW 21 24 1022.9 - 0.2 - - - - - - -
30/04:00am 7.0 SSW 21 25 1023.0 - 0.2 - - - - - - -
30/03:30am 6.9 SSW 25 28 1022.8 - 0.2 - - - - - - -
30/03:00am 8.1 SSW 24 30 1023.0 - 0.2 - - - - - - -
30/02:30am 8.1 SSW 25 32 1023.1 - 0.2 - - - - - - -
30/02:00am 8.2 SSW 26 30 1023.4 - 0.2 - - - - - - -
30/01:30am 8.1 SSW 25 29 1023.6 - 0.2 - - - - - - -
30/01:00am 8.2 SSW 26 31 1023.8 - 0.2 - - - - - - -
30/12:30am 8.2 SSW 26 29 1023.8 - 0.2 - - - - - - -
30/12:00am 8.3 SSW 26 32 1023.9 - 0.2 - - - - - - -
 
Date/Time
EST
Temp

°C
Wind Pressure Rain
since 9am
mm
Weather Cloud Vis
km
Sea
Height
m
Swell
Dir
 
Speed
knots
Gust
knots
hPa Trend Height
m
Period
s
Dir
29/11:30pm 8.1 SSW 25 29 1023.8 - 0.2 - - - - - - -
29/11:00pm 8.1 SSW 26 33 1023.8 - 0.2 - - - - - - -
29/10:30pm 8.2 SSW 26 31 1023.8 - 0.2 - - - - - - -
29/10:00pm 8.1 SSW 26 30 1023.8 - 0.2 - - - - - - -
29/09:30pm 8.3 SSW 27 31 1023.7 - 0.2 - - - - - - -
29/09:00pm 8.3 SSW 27 32 1023.6 - 0.2 - - - - - - -
29/08:30pm 8.3 SSW 28 32 1023.2 - 0.2 - - - - - - -
29/08:00pm 8.5 SSW 28 33 1022.9 - 0.2 - - - - - - -
29/07:30pm 8.5 SSW 27 31 1022.7 - 0.2 - - - - - - -
29/07:00pm 8.4 SSW 29 34 1022.2 - 0.2 - - - - - - -
29/06:30pm 8.3 SSW 28 34 1022.0 - 0.2 - - - - - - -
29/06:00pm 8.0 SSW 26 31 1022.0 - 0.2 - - - - - - -
29/05:30pm 7.9 SSW 29 33 1021.3 - 0.2 - - - - - - -
29/05:00pm 8.0 SSW 29 34 1021.0 - 0.2 - - - - - - -
29/04:30pm 8.5 SSW 29 34 1020.6 - 0.2 - - - - - - -
29/04:00pm 8.2 SSW 29 34 1020.4 - 0.2 - - - - - - -
29/03:30pm 8.2 SSW 29 35 1020.3 - 0.0 - - - - - - -
29/03:00pm 8.4 SSW 29 33 1020.3 - 0.0 - - - - - - -
29/02:30pm 8.5 SSW 26 31 1020.2 - 0.0 - - - - - - -
29/02:00pm 9.1 SSW 27 33 1019.8 - 0.0 - - - - - - -
29/01:30pm 9.1 SSW 26 31 1019.6 - 0.0 - - - - - - -
29/01:02pm 8.9 S 26 36 1019.6 - 0.0 - - - - - - -
29/01:00pm 9.3 S 25 32 1019.8 - 0.0 - - - - - - -
29/12:43pm 9.2 S 28 39 1019.7 - 0.0 - - - - - - -
29/12:30pm 9.4 S 27 34 1019.6 - 0.0 - - - - - - -
29/12:16pm 9.2 S 27 37 1019.7 - 0.0 - - - - - - -
29/12:00pm 9.5 S 29 34 1019.7 - 0.0 - - - - - - -
29/11:30am 9.5 SSW 30 36 1019.5 - 0.0 - - - - - - -
29/11:00am 9.5 SSW 29 33 1019.6 - 0.0 - - - - - - -
29/10:31am 9.1 S 30 44 1019.3 - 0.0 - - - - - - -
29/10:30am 9.2 S 29 37 1019.5 - 0.0 - - - - - - -
29/10:12am 9.3 SSW 29 40 1019.4 - 0.0 - - - - - - -
29/10:00am 8.9 SSW 30 37 1019.3 - 0.0 - - - - - - -
29/09:30am 9.0 SSW 30 36 1019.1 - 0.0 - - - - - - -
29/09:00am 9.4 S 32 39 1018.6 - 17.2 Recent precip. - - - - - -
29/08:34am 9.4 S 36 48 1017.8 - 17.2 - - - - - - -
29/08:30am 9.2 S 35 42 1018.0 - 17.2 - - - - - - -
29/08:00am 8.9 S 36 46 1017.7 - 16.8 - - - - - - -
29/07:34am 9.6 S 34 46 1017.1 - 16.4 - - - - - - -
29/07:30am 9.5 S 35 42 1017.1 - 16.2 - - - - - - -
29/07:00am 9.3 S 35 43 1016.7 - 15.6 - - - - - - -
29/06:32am 8.8 S 31 45 1016.4 - 14.6 - - - - - - -
29/06:30am 8.8 S 29 37 1016.5 - 14.6 - - - - - - -
29/06:00am 8.9 SSW 27 34 1016.5 - 12.4 Rain - - - - - -
29/05:30am 8.0 SSW 26 31 1016.4 - 12.0 - - - - - - -
29/05:00am 7.5 SSW 24 28 1016.4 - 11.4 - - - - - - -
29/04:30am 7.3 SSW 27 31 1016.4 - 10.8 - - - - - - -
29/04:00am 7.2 SSW 24 29 1016.5 - 10.4 - - - - - - -
29/03:30am 6.8 SSW 24 28 1016.5 - 10.2 - - - - - - -
29/03:00am 7.1 SSW 21 28 1016.6 - 9.6 Rain - - - - - -
29/02:30am 7.3 SSW 23 28 1016.7 - 9.0 - - - - - - -
29/02:05am 7.3 SSW 26 37 1016.6 - 8.6 - - - - - - -
29/02:00am 6.8 SSW 26 33 1016.4 - 8.4 - - - - - - -
29/01:30am 7.2 SW 26 32 1016.2 - 8.2 - - - - - - -
29/01:00am 7.0 SW 25 32 1016.2 - 8.2 - - - - - - -
29/12:30am 7.0 SW 29 35 1015.7 - 6.6 - - - - - - -
29/12:07am 6.4 SW 22 33 1015.7 - 6.6 - - - - - - -
29/12:00am 5.7 WSW 24 31 1016.3 - 6.6 Rain - - - - - -
 
Date/Time
EST
Temp

°C
Wind Pressure Rain
since 9am
mm
Weather Cloud Vis
km
Sea
Height
m
Swell
Dir
 
Speed
knots
Gust
knots
hPa Trend Height
m
Period
s
Dir
28/11:41pm 5.3 WSW 21 35 1016.3 - 6.2 - - - - - - -
28/11:30pm 5.0 WSW 18 23 1016.9 - 5.8 - - - - - - -
28/11:05pm 5.3 WSW 22 33 1016.6 - 4.8 - - - - - - -
28/11:00pm 5.0 WSW 21 29 1017.1 - 4.8 - - - - - - -
28/10:30pm 4.3 W 25 33 1017.2 - 4.6 - - - - - - -
28/10:00pm 4.0 W 23 30 1018.0 - 4.4 - - - - - - -
28/09:35pm 3.6 WNW 19 29 1018.4 - 4.2 - - - - - - -
28/09:30pm 3.9 WNW 18 26 1018.8 - 4.2 - - - - - - -
28/09:00pm 3.5 W 18 24 1019.5 - 4.0 Rain - - - - - -
28/08:30pm 3.9 W 19 26 1020.1 - 3.8 - - - - - - -
28/08:00pm 4.0 WSW 18 25 1020.8 - 3.6 - - - - - - -
28/07:37pm 4.3 WSW 21 31 1021.2 - 3.2 - - - - - - -
28/07:30pm 4.7 SW 26 34 1021.4 - 2.8 - - - - - - -
28/07:11pm 4.3 WSW 15 25 1021.6 - 2.6 - - - - - - -
28/07:00pm 3.9 W 13 23 1022.0 - 2.6 - - - - - - -
28/06:57pm 3.8 WSW 15 23 1021.9 - 2.6 - - - - - - -
28/06:30pm 4.4 SW 22 29 1022.2 - 2.6 - - - - - - -
28/06:00pm 4.9 SW 26 32 1021.9 - 2.4 Recent precip. - - - - - -
28/05:30pm 5.5 SW 28 42 1021.9 - 2.2 - - - - - - -
28/05:04pm 6.5 SW 28 44 1021.5 - 2.2 - - - - - - -
28/05:00pm 6.5 SW 25 32 1021.7 - 2.2 - - - - - - -
28/04:31pm 5.4 SSW 26 39 1022.3 - 1.6 - - - - - - -
28/04:30pm 5.6 SSW 25 30 1022.5 - 1.4 - - - - - - -
28/04:18pm 6.2 SSW 25 35 1022.3 - 1.2 - - - - - - -
28/04:00pm 6.0 SW 26 33 1022.6 - 1.2 - - - - - - -
28/03:56pm 6.1 SW 28 35 1022.7 - 1.2 - - - - - - -
28/03:30pm 6.9 SSW 27 41 1022.3 - 1.0 - - - - - - -
28/03:00pm 6.3 SSW 25 34 1022.7 - 1.0 Recent precip. - - - - - -
28/02:56pm 5.4 SSW 27 35 1023.0 - 1.0 - - - - - - -
28/02:41pm 5.2 SSW 30 44 1023.0 - 0.4 - - - - - - -
28/02:36pm 7.6 SSW 23 44 1022.2 - 0.2 - - - - - - -
28/02:35pm 7.8 SSW 22 40 1022.6 - 0.2 - - - - - - -
28/02:30pm 7.4 SSW 20 24 1023.0 - 0.2 - - - - - - -
28/02:07pm 5.6 SSW 30 44 1023.4 - 0.2 - - - - - - -
28/02:00pm 5.9 SSW 33 44 1023.0 - 0.2 - - - - - - -
28/01:58pm 6.8 S 31 41 1023.1 - 0.2 - - - - - - -
28/01:30pm 8.3 SSW 25 31 1023.3 - 0.2 - - - - - - -
28/01:00pm 8.7 SSW 21 29 1023.6 - 0.2 - - - - - - -
28/12:30pm 6.6 SSW 27 36 1024.1 - 0.2 - - - - - - -
28/12:18pm 8.3 SSW 17 33 1023.9 - 0.2 - - - - - - -
28/12:00pm 8.1 SW 16 19 1024.5 - 0.2 - - - - - - -
28/11:53am 7.5 SW 15 18 1024.8 - 0.2 - - - - - - -
28/11:30am 8.0 S 21 28 1024.9 - 0.2 - - - - - - -
28/11:19am 6.8 SSW 22 29 1024.9 - 0.2 - - - - - - -
28/11:00am 6.7 SW 22 31 1024.9 - 0.2 - - - - - - -
28/10:55am 7.1 SSW 17 30 1025.2 - 0.2 - - - - - - -
28/10:34am 5.7 S 24 34 1025.5 - 0.2 - - - - - - -
28/10:30am 6.6 SSW 23 34 1025.3 - 0.0 - - - - - - -
28/10:00am 6.6 SSW 22 32 1025.1 - 0.0 - - - - - - -
28/09:30am 7.3 SSW 24 29 1025.0 - 0.0 - - - - - - -
28/09:00am 6.4 SSW 22 27 1025.1 - 0.6 - - - - - - -
28/08:30am 6.0 SSW 20 25 1025.0 - 0.6 - - - - - - -
28/08:15am 5.8 SSW 24 35 1025.0 - 0.6 - - - - - - -
28/08:00am 6.8 SSW 27 31 1024.6 - 0.6 - - - - - - -
28/07:30am 6.2 S 26 35 1024.3 - 0.6 - - - - - - -
28/07:09am 7.0 SSW 26 36 1024.3 - 0.6 - - - - - - -
28/07:00am 7.3 S 27 32 1024.0 - 0.6 - - - - - - -
28/06:30am 7.1 S 24 28 1023.5 - 0.6 - - - - - - -
28/06:00am 7.4 SSW 27 31 1023.2 - 0.6 - - - - - - -
28/05:30am 7.4 SSW 25 31 1023.1 - 0.6 - - - - - - -
28/05:00am 7.3 SSW 22 25 1023.0 - 0.6 - - - - - - -
28/04:30am 7.3 SSW 23 30 1022.9 - 0.6 - - - - - - -
28/04:17am 7.4 SSW 21 32 1022.6 - 0.6 - - - - - - -
28/04:00am 7.4 SSW 21 25 1022.7 - 0.6 - - - - - - -
28/03:30am 7.5 SSW 24 28 1022.2 - 0.4 - - - - - - -
28/03:00am 7.8 SSW 24 30 1022.1 - 0.2 Rain - - - - - -
28/02:30am 8.4 SSW 24 29 1021.9 - 0.0 - - - - - - -
28/02:26am 8.2 SSW 22 27 1021.9 - 0.0 - - - - - - -
28/02:10am 8.1 SSW 19 26 1021.9 - 0.0 - - - - - - -
28/02:00am 8.5 SSW 21 25 1021.9 - 0.0 - - - - - - -
28/01:30am 8.8 SW 21 26 1021.9 - 0.0 - - - - - - -
28/01:00am 9.1 SW 16 20 1021.7 - 0.0 - - - - - - -
28/12:30am 9.1 SSW 15 17 1021.9 - 0.0 - - - - - - -
28/12:00am 9.0 SSW 14 16 1022.0 - 0.0 - - - - - - -
 
Date/Time
EST
Temp

°C
Wind Pressure Rain
since 9am
mm
Weather Cloud Vis
km
Sea
Height
m
Swell
Dir
 
Speed
knots
Gust
knots
hPa Trend Height
m
Period
s
Dir
27/11:30pm 9.3 SSW 13 15 1022.1 - 0.0 - - - - - - -
27/11:00pm 9.5 SSW 12 15 1022.3 - 0.0 - - - - - - -
27/10:30pm 9.5 SSW 11 14 1022.5 - 0.0 - - - - - - -
27/10:00pm 9.6 SSW 13 15 1022.5 - 0.0 - - - - - - -
27/09:30pm 10.0 SSW 13 16 1022.6 - 0.0 - - - - - - -
27/09:00pm 10.1 SSW 15 17 1022.5 - 0.0 - - - - - - -
27/08:30pm 10.2 SSW 14 16 1022.3 - 0.0 - - - - - - -
27/08:00pm 10.1 SSW 13 14 1022.3 - 0.0 - - - - - - -
27/07:30pm 10.2 SSW 13 15 1022.2 - 0.0 - - - - - - -
27/07:00pm 10.3 S 12 14 1021.9 - 0.0 - - - - - - -
27/06:30pm 10.4 S 7 9 1021.8 - 0.0 - - - - - - -
27/06:00pm 10.7 S 7 10 1021.4 - 0.0 - - - - - - -
27/05:30pm 10.6 SSE 10 11 1021.2 - 0.0 - - - - - - -
27/05:00pm 10.5 SSE 9 11 1021.0 - 0.0 - - - - - - -
27/04:30pm 10.7 SSE 8 11 1021.0 - 0.0 - - - - - - -
27/04:00pm 11.2 SSE 7 8 1020.9 - 0.0 - - - - - - -
27/03:30pm 11.8 S 4 5 1020.9 - 0.0 - - - - - - -
27/03:00pm 11.5 SSW 7 8 1021.0 - 0.0 - - - - - - -
27/02:30pm 11.9 S 8 9 1020.9 - 0.0 - - - - - - -
27/02:00pm 11.6 S 8 9 1021.1 - 0.0 - - - - - - -
27/01:30pm 11.8 SSW 9 10 1021.3 - 0.0 - - - - - - -
27/01:00pm 11.2 SSW 8 10 1021.7 - 0.0 - - - - - - -
27/12:30pm 11.0 S 9 10 1022.0 - 0.0 - - - - - - -
27/12:00pm 10.9 SSW 11 12 1022.5 - 0.0 - - - - - - -

Other Formats:

Comma delimited format used in spreadsheet applications
http://www.bom.gov.au/fwo/IDT60701/IDT60701.95988.axf

JavaScript Object Notation format (JSON) in row-major order
http://www.bom.gov.au/fwo/IDT60701/IDT60701.95988.json